createdAt,value
2019-06-10T00:01:51.496Z,100.00
2019-06-10T00:04:22.197Z,100.00
2019-06-10T00:06:51.814Z,100.00
2019-06-10T00:09:21.067Z,100.00
2019-06-10T00:11:51.486Z,100.00
2019-06-10T00:14:21.405Z,100.00
2019-06-10T00:19:44.398Z,100.00
2019-06-10T00:22:13.109Z,100.00
2019-06-10T00:24:41.744Z,100.00
2019-06-10T00:27:11.714Z,100.00
2019-06-10T00:29:41.004Z,100.00
2019-06-10T00:32:12.730Z,100.00
2019-06-10T00:34:41.942Z,100.00
2019-06-10T00:37:14.434Z,100.00
2019-06-10T00:39:40.988Z,100.00
2019-06-10T00:42:14.139Z,100.00
2019-06-10T00:44:41.672Z,100.00
2019-06-10T00:47:14.678Z,100.00
2019-06-10T00:49:40.972Z,100.00
2019-06-10T00:52:12.167Z,100.00
2019-06-10T00:54:41.832Z,100.00
2019-06-10T00:57:12.359Z,100.00
2019-06-10T00:59:41.363Z,100.00
2019-06-10T01:02:14.024Z,100.00
2019-06-10T01:04:41.810Z,100.00
2019-06-10T01:07:11.741Z,100.00
2019-06-10T01:09:41.281Z,100.00
2019-06-10T01:12:13.144Z,100.00
2019-06-10T01:15:01.119Z,100.00
2019-06-10T01:17:31.105Z,100.00
2019-06-10T01:20:01.523Z,100.00
2019-06-10T01:22:31.562Z,100.00
2019-06-10T01:25:01.646Z,100.00
2019-06-10T01:27:31.585Z,100.00
2019-06-10T01:30:09.614Z,100.00
2019-06-10T01:32:32.123Z,100.00
2019-06-10T01:35:01.281Z,100.00
2019-06-10T01:37:31.221Z,100.00
2019-06-10T01:40:00.803Z,100.00
2019-06-10T01:42:30.736Z,100.00
2019-06-10T01:45:21.305Z,100.00
2019-06-10T01:47:51.141Z,100.00
2019-06-10T01:50:21.824Z,100.00
2019-06-10T01:52:51.626Z,100.00
2019-06-10T01:55:21.937Z,100.00
2019-06-10T01:57:51.960Z,100.00
2019-06-10T02:01:01.940Z,100.00
2019-06-10T02:03:31.461Z,100.00
2019-06-10T02:06:01.590Z,100.00
2019-06-10T02:08:31.734Z,100.00
2019-06-10T02:11:01.803Z,100.00
2019-06-10T02:13:51.510Z,100.00
2019-06-10T02:16:23.769Z,100.00
2019-06-10T02:19:00.169Z,100.00
2019-06-10T02:21:24.255Z,100.00
2019-06-10T02:23:52.092Z,100.00
2019-06-10T02:26:23.243Z,100.00
2019-06-10T02:28:51.903Z,100.00
2019-06-10T02:31:30.040Z,100.00
2019-06-10T02:33:52.344Z,100.00
2019-06-10T02:36:30.227Z,100.00
2019-06-10T02:38:53.926Z,100.00
2019-06-10T02:41:29.529Z,100.00
2019-06-10T02:43:53.457Z,100.00
2019-06-10T02:46:30.658Z,100.00
2019-06-10T02:48:54.370Z,100.00
2019-06-10T02:51:30.324Z,100.00
2019-06-10T02:53:54.142Z,100.00
2019-06-10T02:56:30.007Z,100.00
2019-06-10T02:58:53.613Z,100.00
2019-06-10T03:01:31.890Z,100.00
2019-06-10T03:03:54.556Z,100.00
2019-06-10T03:06:32.417Z,100.00
2019-06-10T03:08:55.237Z,100.00
2019-06-10T03:11:29.638Z,100.00
2019-06-10T03:13:55.524Z,100.00
2019-06-10T03:19:44.148Z,100.00
2019-06-10T03:22:03.000Z,100.00
2019-06-10T03:24:52.402Z,100.00
2019-06-10T03:27:23.561Z,100.00
2019-06-10T03:29:52.680Z,100.00
2019-06-10T03:32:29.562Z,100.00
2019-06-10T03:34:54.893Z,100.00
2019-06-10T03:38:03.098Z,100.00
2019-06-10T03:40:32.776Z,100.00
2019-06-10T03:43:02.627Z,100.00
2019-06-10T03:45:32.555Z,100.00
2019-06-10T03:48:03.608Z,100.00
2019-06-10T03:50:32.502Z,100.00
2019-06-10T03:53:04.285Z,100.00
2019-06-10T03:55:33.108Z,100.00
2019-06-10T03:58:02.665Z,100.00
2019-06-10T04:00:32.721Z,100.00
2019-06-10T04:03:02.726Z,100.00
2019-06-10T04:05:33.107Z,100.00
2019-06-10T04:10:52.151Z,100.00
2019-06-10T04:13:24.244Z,100.00
2019-06-10T04:15:53.450Z,100.00
2019-06-10T04:18:26.017Z,100.00
2019-06-10T04:20:53.421Z,100.00
2019-06-10T04:23:23.801Z,100.00
2019-06-10T04:25:52.737Z,100.00
2019-06-10T04:29:02.745Z,100.00
2019-06-10T04:31:32.985Z,100.00
2019-06-10T04:34:03.160Z,100.00
2019-06-10T04:36:33.296Z,100.00
2019-06-10T04:39:03.313Z,100.00
2019-06-10T04:41:33.028Z,100.00
2019-06-10T04:44:02.748Z,100.00
2019-06-10T04:46:32.521Z,100.00
2019-06-10T04:49:02.875Z,100.00
2019-06-10T04:51:33.119Z,100.00
2019-06-10T04:54:43.028Z,100.00
2019-06-10T04:57:12.808Z,100.00
2019-06-10T04:59:42.934Z,100.00
2019-06-10T05:02:12.815Z,100.00
2019-06-10T05:04:42.754Z,100.00
2019-06-10T05:07:12.566Z,100.00
2019-06-10T05:09:42.280Z,100.00
2019-06-10T05:12:12.223Z,100.00
2019-06-10T05:14:43.132Z,100.00
2019-06-10T05:17:12.735Z,100.00
2019-06-10T05:19:42.879Z,100.00
2019-06-10T05:22:12.467Z,100.00
2019-06-10T05:24:42.543Z,100.00
2019-06-10T05:27:12.543Z,100.00
2019-06-10T05:29:42.214Z,100.00
2019-06-10T05:32:12.773Z,100.00
2019-06-10T05:34:43.749Z,100.00
2019-06-10T05:37:12.607Z,100.00
2019-06-10T05:39:42.386Z,100.00
2019-06-10T05:42:12.755Z,100.00
2019-06-10T05:44:43.054Z,100.00
2019-06-10T05:47:12.759Z,100.00
2019-06-10T05:49:43.162Z,100.00
2019-06-10T05:52:12.977Z,100.00
2019-06-10T05:54:43.112Z,100.00
2019-06-10T05:57:12.145Z,100.00
2019-06-10T05:59:43.149Z,100.00
2019-06-10T06:02:12.857Z,100.00
2019-06-10T06:04:42.803Z,100.00
2019-06-10T06:07:12.881Z,100.00
2019-06-10T06:09:42.690Z,100.00
2019-06-10T06:12:14.307Z,100.00
2019-06-10T06:14:42.972Z,100.00
2019-06-10T06:17:12.682Z,100.00
2019-06-10T06:19:43.343Z,100.00
2019-06-10T06:22:13.009Z,100.00
2019-06-10T06:24:42.879Z,100.00
2019-06-10T06:27:13.105Z,100.00
2019-06-10T06:29:43.148Z,100.00
2019-06-10T06:32:13.252Z,99.56
2019-06-10T06:34:43.125Z,98.93
2019-06-10T06:37:13.111Z,99.29
2019-06-10T06:39:42.918Z,99.14
2019-06-10T06:42:12.710Z,98.85
2019-06-10T06:44:43.415Z,99.29
2019-06-10T06:47:13.273Z,98.36
2019-06-10T06:50:25.476Z,98.52
2019-06-10T06:53:28.129Z,99.20
2019-06-10T06:55:23.745Z,100.00
2019-06-10T06:57:52.948Z,100.00
2019-06-10T07:01:10.067Z,100.00
2019-06-10T07:03:35.359Z,99.57
2019-06-10T07:06:03.583Z,98.91
2019-06-10T07:09:13.544Z,98.38
2019-06-10T07:12:23.021Z,98.35
2019-06-10T07:15:34.416Z,98.92
2019-06-10T07:18:02.706Z,97.96
2019-06-10T07:20:33.336Z,98.49
2019-06-10T07:23:02.704Z,98.43
2019-06-10T07:25:34.199Z,99.90
2019-06-10T07:28:02.338Z,99.94
2019-06-10T07:30:34.316Z,99.20
2019-06-10T07:33:02.967Z,98.03
2019-06-10T07:35:33.000Z,96.33
2019-06-10T07:38:03.064Z,96.52
2019-06-10T07:40:33.445Z,96.80
2019-06-10T07:43:03.041Z,97.09
2019-06-10T07:45:33.770Z,97.01
2019-06-10T07:48:02.821Z,96.59
2019-06-10T07:50:33.345Z,95.99
2019-06-10T07:53:02.831Z,96.72
2019-06-10T07:55:33.233Z,96.31
2019-06-10T07:58:02.543Z,96.99
2019-06-10T08:00:33.691Z,97.12
2019-06-10T08:03:02.842Z,96.95
2019-06-10T08:05:32.320Z,96.12
2019-06-10T08:08:02.843Z,95.05
2019-06-10T08:10:32.869Z,92.17
2019-06-10T08:13:02.948Z,96.83
2019-06-10T08:15:32.625Z,97.87
2019-06-10T08:18:04.355Z,97.31
2019-06-10T08:20:52.821Z,98.23
2019-06-10T08:24:03.488Z,97.68
2019-06-10T08:26:32.627Z,97.54
2019-06-10T08:29:04.155Z,98.50
2019-06-10T08:31:33.314Z,100.00
2019-06-10T08:34:02.937Z,100.00
2019-06-10T08:36:33.353Z,100.00
2019-06-10T08:39:03.358Z,100.00
2019-06-10T08:41:33.537Z,100.00
2019-06-10T08:44:02.431Z,100.00
2019-06-10T08:46:33.007Z,100.00
2019-06-10T08:49:03.178Z,100.00
2019-06-10T08:51:32.462Z,99.82
2019-06-10T08:54:02.539Z,99.06
2019-06-10T08:56:53.987Z,96.95
2019-06-10T08:59:23.145Z,95.94
2019-06-10T09:01:56.780Z,93.04
2019-06-10T09:04:22.996Z,89.60
2019-06-10T09:06:53.754Z,86.63
2019-06-10T09:09:22.600Z,84.77
2019-06-10T09:11:54.539Z,82.40
2019-06-10T09:14:23.455Z,82.33
2019-06-10T09:16:54.289Z,81.94
2019-06-10T09:19:23.610Z,79.70
2019-06-10T09:21:55.981Z,81.16
2019-06-10T09:24:22.683Z,80.65
2019-06-10T09:26:54.679Z,80.55
2019-06-10T09:29:22.286Z,81.61
2019-06-10T09:31:55.442Z,80.79
2019-06-10T09:34:23.819Z,78.53
2019-06-10T09:36:56.571Z,79.17
2019-06-10T09:39:23.148Z,74.43
2019-06-10T09:42:00.019Z,74.44
2019-06-10T09:45:02.678Z,74.89
2019-06-10T09:50:52.391Z,75.46
2019-06-10T09:53:30.231Z,73.88
2019-06-10T09:55:50.996Z,74.51
2019-06-10T09:58:19.233Z,72.25
2019-06-10T10:01:27.689Z,71.33
2019-06-10T10:03:59.988Z,69.61
2019-06-10T10:06:26.751Z,68.39
2019-06-10T10:11:32.126Z,69.49
2019-06-10T10:14:06.532Z,70.24
2019-06-10T10:16:33.963Z,71.30
2019-06-10T10:19:05.137Z,71.02
2019-06-10T10:21:32.928Z,71.51
2019-06-10T10:24:08.145Z,67.99
2019-06-10T10:26:31.840Z,68.22
2019-06-10T10:29:02.631Z,71.51
2019-06-10T10:31:32.396Z,66.84
2019-06-10T10:34:02.755Z,63.33
2019-06-10T10:36:33.503Z,66.09
2019-06-10T10:39:02.491Z,64.40
2019-06-10T10:41:32.425Z,63.49
2019-06-10T10:44:03.073Z,64.43
2019-06-10T10:46:32.580Z,66.77
2019-06-10T10:49:02.739Z,64.33
2019-06-10T10:51:32.647Z,67.66
2019-06-10T10:54:20.988Z,67.39
2019-06-10T10:56:33.908Z,63.38
2019-06-10T10:59:03.416Z,64.56
2019-06-10T11:01:33.407Z,62.10
2019-06-10T11:04:03.765Z,59.18
2019-06-10T11:06:32.891Z,62.08
2019-06-10T11:09:01.582Z,62.55
2019-06-10T11:12:10.025Z,61.31
2019-06-10T11:14:38.664Z,62.45
2019-06-10T11:17:07.360Z,63.86
2019-06-10T11:19:36.001Z,64.24
2019-06-10T11:22:04.647Z,65.21
2019-06-10T11:24:40.091Z,69.51
2019-06-10T11:27:03.737Z,67.77
2019-06-10T11:29:33.025Z,70.63
2019-06-10T11:32:03.194Z,65.74
2019-06-10T11:34:55.545Z,64.55
2019-06-10T11:37:23.184Z,69.23
2019-06-10T11:39:54.873Z,63.85
2019-06-10T11:42:23.557Z,61.47
2019-06-10T11:44:57.340Z,65.66
2019-06-10T11:47:23.022Z,64.04
2019-06-10T11:49:54.969Z,64.93
2019-06-10T11:52:23.396Z,64.87
2019-06-10T11:55:05.541Z,66.90
2019-06-10T11:57:22.982Z,67.68
2019-06-10T11:59:54.827Z,66.35
2019-06-10T12:02:23.291Z,71.21
2019-06-10T12:04:53.722Z,67.78
2019-06-10T12:07:22.663Z,67.71
2019-06-10T12:09:54.004Z,68.75
2019-06-10T12:12:22.093Z,69.95
2019-06-10T12:14:55.292Z,71.57
2019-06-10T12:17:40.961Z,72.19
2019-06-10T12:19:55.581Z,72.05
2019-06-10T12:22:23.114Z,73.07
2019-06-10T12:25:15.506Z,75.03
2019-06-10T12:27:22.382Z,76.41
2019-06-10T12:29:54.217Z,82.63
2019-06-10T12:32:22.557Z,82.52
2019-06-10T12:34:53.115Z,80.31
2019-06-10T12:37:23.816Z,83.13
2019-06-10T12:39:55.058Z,80.43
2019-06-10T12:42:22.930Z,82.34
2019-06-10T12:44:53.820Z,82.15
2019-06-10T12:47:22.809Z,84.96
2019-06-10T12:49:54.709Z,87.24
2019-06-10T12:52:23.002Z,80.51
2019-06-10T12:54:53.356Z,83.12
2019-06-10T12:57:23.547Z,82.26
2019-06-10T12:59:52.398Z,81.76
2019-06-10T13:03:03.781Z,87.20
2019-06-10T13:05:53.172Z,89.10
2019-06-10T13:08:24.006Z,90.81
2019-06-10T13:10:53.275Z,86.51
2019-06-10T13:13:22.876Z,88.58
2019-06-10T13:15:53.444Z,85.92
2019-06-10T13:18:23.972Z,84.98
2019-06-10T13:20:54.136Z,82.04
2019-06-10T13:23:31.576Z,82.28
2019-06-10T13:25:58.776Z,82.80
2019-06-10T13:28:24.920Z,82.93
2019-06-10T13:30:54.697Z,88.24
2019-06-10T13:33:23.964Z,89.18
2019-06-10T13:35:53.711Z,90.03
2019-06-10T13:38:25.759Z,93.20
2019-06-10T13:40:53.454Z,91.94
2019-06-10T13:43:23.247Z,92.47
2019-06-10T13:45:53.262Z,93.74
2019-06-10T13:48:26.008Z,95.38
2019-06-10T13:50:53.361Z,97.98
2019-06-10T13:53:22.049Z,99.63
2019-06-10T13:55:56.936Z,100.00
2019-06-10T13:58:23.011Z,100.00
2019-06-10T14:00:53.620Z,100.00
2019-06-10T14:03:22.902Z,100.00
2019-06-10T14:05:58.532Z,100.00
2019-06-10T14:08:23.343Z,100.00
2019-06-10T14:10:54.011Z,100.00
2019-06-10T14:13:23.884Z,100.00
2019-06-10T14:15:54.570Z,100.00
2019-06-10T14:18:24.406Z,100.00
2019-06-10T14:20:53.550Z,100.00
2019-06-10T14:23:23.479Z,100.00
2019-06-10T14:25:53.405Z,100.00
2019-06-10T14:28:38.549Z,100.00
2019-06-10T14:30:53.950Z,100.00
2019-06-10T14:33:23.564Z,100.00
2019-06-10T14:35:53.462Z,100.00
2019-06-10T14:38:22.707Z,100.00
2019-06-10T14:40:52.585Z,100.00
2019-06-10T14:44:01.475Z,100.00
2019-06-10T14:46:30.180Z,100.00
2019-06-10T14:48:58.832Z,100.00
2019-06-10T14:51:27.520Z,100.00
2019-06-10T14:53:56.158Z,100.00
2019-06-10T14:56:53.481Z,100.00
2019-06-10T14:59:17.880Z,100.00
2019-06-10T15:01:44.921Z,100.00
2019-06-10T15:04:15.996Z,100.00
2019-06-10T15:06:44.027Z,100.00
2019-06-10T15:09:13.693Z,99.44
2019-06-10T15:11:43.074Z,99.60
2019-06-10T15:14:14.165Z,99.78
2019-06-10T15:16:43.773Z,98.82
2019-06-10T15:19:19.948Z,97.82
2019-06-10T15:21:42.964Z,96.74
2019-06-10T15:24:11.985Z,95.22
2019-06-10T15:26:42.364Z,93.95
2019-06-10T15:29:11.883Z,93.66
2019-06-10T15:31:42.838Z,95.28
2019-06-10T15:34:14.815Z,95.18
2019-06-10T15:37:02.766Z,94.59
2019-06-10T15:39:33.208Z,95.22
2019-06-10T15:42:03.046Z,95.74
2019-06-10T15:44:48.813Z,96.86
2019-06-10T15:47:03.284Z,97.73
2019-06-10T15:49:33.409Z,98.14
2019-06-10T15:52:25.077Z,98.41
2019-06-10T15:54:53.160Z,98.58
2019-06-10T15:57:34.822Z,97.58
2019-06-10T15:59:52.247Z,97.84
2019-06-10T16:02:25.235Z,97.56
2019-06-10T16:04:52.718Z,98.37
2019-06-10T16:07:25.350Z,100.00
2019-06-10T16:09:53.363Z,99.01
2019-06-10T16:12:26.461Z,100.00
2019-06-10T16:14:53.093Z,100.00
2019-06-10T16:17:23.249Z,100.00
2019-06-10T16:19:52.995Z,100.00
2019-06-10T16:22:24.914Z,99.60
2019-06-10T16:24:53.113Z,100.00
2019-06-10T16:27:23.022Z,100.00
2019-06-10T16:29:52.997Z,100.00
2019-06-10T16:32:24.572Z,100.00
2019-06-10T16:34:53.015Z,100.00
2019-06-10T16:37:23.419Z,100.00
2019-06-10T16:39:52.548Z,100.00
2019-06-10T16:42:25.679Z,100.00
2019-06-10T16:44:52.904Z,100.00
2019-06-10T16:47:25.070Z,100.00
2019-06-10T16:49:52.326Z,100.00
2019-06-10T16:52:24.456Z,100.00
2019-06-10T16:54:52.766Z,100.00
2019-06-10T16:57:23.870Z,100.00
2019-06-10T16:59:52.132Z,100.00
2019-06-10T17:02:24.824Z,100.00
2019-06-10T17:04:52.787Z,100.00
2019-06-10T17:07:22.587Z,100.00
2019-06-10T17:09:52.618Z,100.00
2019-06-10T17:12:24.805Z,100.00
2019-06-10T17:14:52.762Z,100.00
2019-06-10T17:17:24.907Z,100.00
2019-06-10T17:19:51.784Z,100.00
2019-06-10T17:22:21.298Z,99.80
2019-06-10T17:24:50.867Z,100.00
2019-06-10T17:27:22.280Z,100.00
2019-06-10T17:29:51.944Z,100.00
2019-06-10T17:32:22.613Z,100.00
2019-06-10T17:34:52.618Z,100.00
2019-06-10T17:37:22.264Z,100.00
2019-06-10T17:39:53.003Z,100.00
2019-06-10T17:42:27.826Z,100.00
2019-06-10T17:44:52.999Z,100.00
2019-06-10T17:47:24.557Z,100.00
2019-06-10T17:49:53.358Z,100.00
2019-06-10T17:52:22.050Z,100.00
2019-06-10T17:54:52.522Z,100.00
2019-06-10T17:57:23.598Z,100.00
2019-06-10T17:59:52.443Z,100.00
2019-06-10T18:02:23.043Z,100.00
2019-06-10T18:04:52.659Z,100.00
2019-06-10T18:07:35.738Z,100.00
2019-06-10T18:09:53.098Z,100.00
2019-06-10T18:12:22.316Z,100.00
2019-06-10T18:14:52.539Z,100.00
2019-06-10T18:17:23.864Z,100.00
2019-06-10T18:19:53.364Z,100.00
2019-06-10T18:22:24.332Z,100.00
2019-06-10T18:24:53.646Z,100.00
2019-06-10T18:27:22.300Z,100.00
2019-06-10T18:29:51.010Z,100.00
2019-06-10T18:32:19.647Z,100.00
2019-06-10T18:34:48.286Z,100.00
2019-06-10T18:37:16.896Z,100.00
2019-06-10T18:39:45.565Z,100.00
2019-06-10T18:42:14.277Z,100.00
2019-06-10T18:44:42.947Z,100.00
2019-06-10T18:47:13.403Z,100.00
2019-06-10T18:49:43.236Z,100.00
2019-06-10T18:52:12.781Z,100.00
2019-06-10T18:54:43.541Z,100.00
2019-06-10T18:57:13.293Z,100.00
2019-06-10T18:59:42.806Z,100.00
2019-06-10T19:02:12.375Z,100.00
2019-06-10T19:04:43.267Z,100.00
2019-06-10T19:07:11.426Z,100.00
2019-06-10T19:09:47.005Z,100.00
2019-06-10T19:12:29.773Z,100.00
2019-06-10T19:15:02.638Z,100.00
2019-06-10T19:17:34.899Z,100.00
2019-06-10T19:20:03.786Z,100.00
2019-06-10T19:22:34.062Z,100.00
2019-06-10T19:25:03.714Z,100.00
2019-06-10T19:27:34.792Z,100.00
2019-06-10T19:30:02.626Z,100.00
2019-06-10T19:32:33.713Z,100.00
2019-06-10T19:35:03.178Z,100.00
2019-06-10T19:37:54.366Z,100.00
2019-06-10T19:40:23.168Z,100.00
2019-06-10T19:42:52.533Z,100.00
2019-06-10T19:48:35.397Z,100.00
2019-06-10T19:51:03.077Z,100.00
2019-06-10T19:53:33.020Z,100.00
2019-06-10T19:56:02.551Z,100.00
2019-06-10T19:58:32.489Z,100.00
2019-06-10T20:01:02.571Z,100.00
2019-06-10T20:03:33.872Z,100.00
2019-06-10T20:06:03.091Z,100.00
2019-06-10T20:08:33.061Z,100.00
2019-06-10T20:11:03.412Z,100.00
2019-06-10T20:13:34.327Z,100.00
2019-06-10T20:16:03.346Z,100.00
2019-06-10T20:18:33.271Z,100.00
2019-06-10T20:21:02.904Z,100.00
2019-06-10T20:23:33.459Z,100.00
2019-06-10T20:26:02.267Z,100.00
2019-06-10T20:28:32.210Z,100.00
2019-06-10T20:31:01.474Z,100.00
2019-06-10T20:36:25.655Z,100.00
2019-06-10T20:38:51.236Z,100.00
2019-06-10T20:41:20.373Z,100.00
2019-06-10T20:43:49.593Z,100.00
2019-06-10T20:46:19.408Z,100.00
2019-06-10T20:48:50.891Z,100.00
2019-06-10T20:51:18.490Z,100.00
2019-06-10T20:53:47.997Z,100.00
2019-06-10T20:56:20.225Z,100.00
2019-06-10T20:58:49.579Z,100.00
2019-06-10T21:01:18.387Z,100.00
2019-06-10T21:03:49.297Z,100.00
2019-06-10T21:06:39.226Z,100.00
2019-06-10T21:09:48.976Z,100.00
2019-06-10T21:12:18.774Z,100.00
2019-06-10T21:14:48.461Z,100.00
2019-06-10T21:17:17.673Z,100.00
2019-06-10T21:19:47.581Z,100.00
2019-06-10T21:22:16.891Z,100.00
2019-06-10T21:24:46.606Z,100.00
2019-06-10T21:27:16.015Z,100.00
2019-06-10T21:29:46.976Z,100.00
2019-06-10T21:32:15.105Z,100.00
2019-06-10T21:34:45.158Z,100.00
2019-06-10T21:37:14.135Z,100.00
2019-06-10T21:39:44.880Z,100.00
2019-06-10T21:42:13.131Z,100.00
2019-06-10T21:44:41.823Z,100.00
2019-06-10T21:47:12.825Z,100.00
2019-06-10T21:49:42.719Z,100.00
2019-06-10T21:52:12.975Z,100.00
2019-06-10T21:54:42.575Z,100.00
2019-06-10T21:57:12.085Z,100.00
2019-06-10T21:59:42.907Z,100.00
2019-06-10T22:02:12.684Z,100.00
2019-06-10T22:04:43.650Z,100.00
2019-06-10T22:07:11.925Z,100.00
2019-06-10T22:09:42.547Z,100.00
2019-06-10T22:12:12.002Z,100.00
2019-06-10T22:15:02.023Z,100.00
2019-06-10T22:17:30.517Z,100.00
2019-06-10T22:19:59.042Z,100.00
2019-06-10T22:22:27.539Z,100.00
2019-06-10T22:24:56.500Z,100.00
2019-06-10T22:27:26.414Z,100.00
2019-06-10T22:29:56.952Z,100.00
2019-06-10T22:32:25.424Z,100.00
2019-06-10T22:34:55.461Z,100.00
2019-06-10T22:37:24.479Z,100.00
2019-06-10T22:39:54.992Z,100.00
2019-06-10T22:42:23.462Z,100.00
2019-06-10T22:44:54.508Z,100.00
2019-06-10T22:47:22.495Z,100.00
2019-06-10T22:49:54.474Z,100.00
2019-06-10T22:52:23.098Z,100.00
2019-06-10T22:54:54.547Z,100.00
2019-06-10T22:57:43.959Z,100.00
2019-06-10T23:00:53.235Z,100.00
2019-06-10T23:03:22.355Z,100.00
2019-06-10T23:05:52.282Z,100.00
2019-06-10T23:08:23.078Z,100.00
2019-06-10T23:10:53.711Z,100.00
2019-06-10T23:13:23.158Z,100.00
2019-06-10T23:15:53.980Z,100.00
2019-06-10T23:18:22.892Z,100.00
2019-06-10T23:20:54.510Z,100.00
2019-06-10T23:23:23.387Z,100.00
2019-06-10T23:25:52.206Z,100.00
2019-06-10T23:28:22.269Z,100.00
2019-06-10T23:30:55.303Z,100.00
2019-06-10T23:33:22.925Z,100.00
2019-06-10T23:35:52.570Z,100.00
2019-06-10T23:39:04.041Z,100.00
2019-06-10T23:41:32.972Z,100.00
2019-06-10T23:44:04.329Z,100.00
2019-06-10T23:46:33.402Z,100.00
2019-06-10T23:49:04.370Z,100.00
2019-06-10T23:51:33.273Z,100.00
2019-06-10T23:54:06.039Z,100.00
2019-06-10T23:56:33.264Z,100.00
2019-06-10T23:59:03.470Z,100.00
